sensor_id;sensor_type;location;lat;lon;timestamp;P1;durP1;ratioP1;P2;durP2;ratioP2
9960;SDS011;5021;51.506;11.320;2023-02-04T00:00:47;11.97;;;3.27;;
9960;SDS011;5021;51.506;11.320;2023-02-04T00:03:13;10.27;;;3.00;;
9960;SDS011;5021;51.506;11.320;2023-02-04T00:05:40;16.20;;;4.33;;
9960;SDS011;5021;51.506;11.320;2023-02-04T00:08:06;13.43;;;4.00;;
9960;SDS011;5021;51.506;11.320;2023-02-04T00:10:32;14.40;;;3.67;;
9960;SDS011;5021;51.506;11.320;2023-02-04T00:12:58;16.30;;;4.67;;
9960;SDS011;5021;51.506;11.320;2023-02-04T00:15:24;13.73;;;3.70;;
9960;SDS011;5021;51.506;11.320;2023-02-04T00:17:50;13.57;;;3.57;;
9960;SDS011;5021;51.506;11.320;2023-02-04T00:20:16;14.60;;;3.43;;
9960;SDS011;5021;51.506;11.320;2023-02-04T00:22:43;15.10;;;5.13;;
9960;SDS011;5021;51.506;11.320;2023-02-04T00:25:09;9.13;;;3.20;;
9960;SDS011;5021;51.506;11.320;2023-02-04T00:27:36;14.63;;;3.80;;
9960;SDS011;5021;51.506;11.320;2023-02-04T00:30:03;13.83;;;4.03;;
9960;SDS011;5021;51.506;11.320;2023-02-04T00:32:29;17.00;;;4.00;;
9960;SDS011;5021;51.506;11.320;2023-02-04T00:34:54;7.47;;;2.97;;
9960;SDS011;5021;51.506;11.320;2023-02-04T00:37:20;4.70;;;1.80;;
9960;SDS011;5021;51.506;11.320;2023-02-04T00:39:46;2.20;;;1.30;;
9960;SDS011;5021;51.506;11.320;2023-02-04T00:42:12;2.47;;;1.73;;
9960;SDS011;5021;51.506;11.320;2023-02-04T00:44:38;1.07;;;1.07;;
9960;SDS011;5021;51.506;11.320;2023-02-04T00:47:04;1.57;;;1.47;;
9960;SDS011;5021;51.506;11.320;2023-02-04T00:49:30;1.20;;;1.20;;
9960;SDS011;5021;51.506;11.320;2023-02-04T00:51:57;1.70;;;1.30;;
9960;SDS011;5021;51.506;11.320;2023-02-04T00:54:23;1.47;;;1.37;;
9960;SDS011;5021;51.506;11.320;2023-02-04T00:56:49;1.60;;;1.50;;
9960;SDS011;5021;51.506;11.320;2023-02-04T00:59:15;2.63;;;1.57;;
9960;SDS011;5021;51.506;11.320;2023-02-04T01:01:41;2.70;;;1.70;;
9960;SDS011;5021;51.506;11.320;2023-02-04T01:04:07;2.50;;;2.10;;
9960;SDS011;5021;51.506;11.320;2023-02-04T01:06:33;1.87;;;1.70;;
9960;SDS011;5021;51.506;11.320;2023-02-04T01:08:59;2.07;;;1.83;;
9960;SDS011;5021;51.506;11.320;2023-02-04T01:11:25;2.80;;;2.30;;
9960;SDS011;5021;51.506;11.320;2023-02-04T01:13:51;3.30;;;2.00;;
9960;SDS011;5021;51.506;11.320;2023-02-04T01:16:17;2.43;;;2.00;;
9960;SDS011;5021;51.506;11.320;2023-02-04T01:18:43;2.40;;;2.20;;
9960;SDS011;5021;51.506;11.320;2023-02-04T01:21:10;4.00;;;2.60;;
9960;SDS011;5021;51.506;11.320;2023-02-04T01:23:36;2.47;;;2.20;;
9960;SDS011;5021;51.506;11.320;2023-02-04T01:26:02;3.50;;;2.23;;
9960;SDS011;5021;51.506;11.320;2023-02-04T01:28:28;3.53;;;2.43;;
9960;SDS011;5021;51.506;11.320;2023-02-04T01:30:54;3.60;;;2.10;;
9960;SDS011;5021;51.506;11.320;2023-02-04T01:33:20;5.23;;;2.80;;
9960;SDS011;5021;51.506;11.320;2023-02-04T01:35:46;3.43;;;2.73;;
9960;SDS011;5021;51.506;11.320;2023-02-04T01:38:12;2.47;;;2.23;;
9960;SDS011;5021;51.506;11.320;2023-02-04T01:40:38;3.07;;;2.47;;
9960;SDS011;5021;51.506;11.320;2023-02-04T01:43:04;4.40;;;2.60;;
9960;SDS011;5021;51.506;11.320;2023-02-04T01:45:30;3.20;;;2.90;;
9960;SDS011;5021;51.506;11.320;2023-02-04T01:47:59;4.60;;;2.40;;
9960;SDS011;5021;51.506;11.320;2023-02-04T01:50:25;5.47;;;2.50;;
9960;SDS011;5021;51.506;11.320;2023-02-04T01:52:51;3.93;;;2.80;;
9960;SDS011;5021;51.506;11.320;2023-02-04T01:55:18;4.83;;;2.83;;
9960;SDS011;5021;51.506;11.320;2023-02-04T01:57:44;3.20;;;2.90;;
9960;SDS011;5021;51.506;11.320;2023-02-04T02:00:53;3.67;;;2.57;;
9960;SDS011;5021;51.506;11.320;2023-02-04T02:03:00;2.70;;;2.50;;
9960;SDS011;5021;51.506;11.320;2023-02-04T02:05:29;3.40;;;2.97;;
9960;SDS011;5021;51.506;11.320;2023-02-04T02:07:56;3.10;;;2.40;;
9960;SDS011;5021;51.506;11.320;2023-02-04T02:10:23;3.10;;;2.80;;
9960;SDS011;5021;51.506;11.320;2023-02-04T02:12:49;4.77;;;2.73;;
9960;SDS011;5021;51.506;11.320;2023-02-04T02:15:16;4.27;;;2.70;;
9960;SDS011;5021;51.506;11.320;2023-02-04T02:17:42;3.67;;;2.80;;
9960;SDS011;5021;51.506;11.320;2023-02-04T02:20:09;4.57;;;3.10;;
9960;SDS011;5021;51.506;11.320;2023-02-04T02:22:40;2.67;;;2.47;;
9960;SDS011;5021;51.506;11.320;2023-02-04T02:25:10;3.10;;;2.70;;
9960;SDS011;5021;51.506;11.320;2023-02-04T02:27:37;2.77;;;2.50;;
9960;SDS011;5021;51.506;11.320;2023-02-04T02:30:03;3.00;;;2.70;;
9960;SDS011;5021;51.506;11.320;2023-02-04T02:32:29;2.80;;;2.50;;
9960;SDS011;5021;51.506;11.320;2023-02-04T02:34:55;3.90;;;2.30;;
9960;SDS011;5021;51.506;11.320;2023-02-04T02:37:21;2.73;;;2.50;;
9960;SDS011;5021;51.506;11.320;2023-02-04T02:39:47;2.60;;;2.40;;
9960;SDS011;5021;51.506;11.320;2023-02-04T02:42:14;2.80;;;2.37;;
9960;SDS011;5021;51.506;11.320;2023-02-04T02:44:41;3.87;;;2.13;;
9960;SDS011;5021;51.506;11.320;2023-02-04T02:47:10;2.77;;;2.57;;
9960;SDS011;5021;51.506;11.320;2023-02-04T02:49:37;3.00;;;2.80;;
9960;SDS011;5021;51.506;11.320;2023-02-04T02:52:04;3.00;;;2.70;;
9960;SDS011;5021;51.506;11.320;2023-02-04T02:54:30;3.83;;;2.40;;
9960;SDS011;5021;51.506;11.320;2023-02-04T02:56:58;3.93;;;2.90;;
9960;SDS011;5021;51.506;11.320;2023-02-04T02:59:24;2.90;;;2.53;;
9960;SDS011;5021;51.506;11.320;2023-02-04T03:01:51;2.03;;;1.93;;
9960;SDS011;5021;51.506;11.320;2023-02-04T03:04:18;2.50;;;2.30;;
9960;SDS011;5021;51.506;11.320;2023-02-04T03:06:46;2.60;;;2.40;;
9960;SDS011;5021;51.506;11.320;2023-02-04T03:09:12;3.07;;;2.30;;
9960;SDS011;5021;51.506;11.320;2023-02-04T03:11:38;2.77;;;2.37;;
9960;SDS011;5021;51.506;11.320;2023-02-04T03:14:04;6.20;;;2.80;;
9960;SDS011;5021;51.506;11.320;2023-02-04T03:16:30;3.43;;;2.40;;
9960;SDS011;5021;51.506;11.320;2023-02-04T03:18:58;4.60;;;2.47;;
9960;SDS011;5021;51.506;11.320;2023-02-04T03:21:24;2.57;;;2.37;;
9960;SDS011;5021;51.506;11.320;2023-02-04T03:23:50;2.87;;;2.60;;
9960;SDS011;5021;51.506;11.320;2023-02-04T03:26:20;2.60;;;2.40;;
9960;SDS011;5021;51.506;11.320;2023-02-04T03:28:46;4.47;;;2.70;;
9960;SDS011;5021;51.506;11.320;2023-02-04T03:31:12;2.63;;;2.43;;
9960;SDS011;5021;51.506;11.320;2023-02-04T03:33:38;3.07;;;2.70;;
9960;SDS011;5021;51.506;11.320;2023-02-04T03:36:04;3.17;;;2.57;;
9960;SDS011;5021;51.506;11.320;2023-02-04T03:38:30;3.00;;;2.47;;
9960;SDS011;5021;51.506;11.320;2023-02-04T03:40:57;4.07;;;2.40;;
9960;SDS011;5021;51.506;11.320;2023-02-04T03:43:23;3.03;;;2.30;;
9960;SDS011;5021;51.506;11.320;2023-02-04T03:45:49;3.20;;;2.43;;
9960;SDS011;5021;51.506;11.320;2023-02-04T03:48:15;3.80;;;2.40;;
9960;SDS011;5021;51.506;11.320;2023-02-04T03:50:41;3.27;;;2.30;;
9960;SDS011;5021;51.506;11.320;2023-02-04T03:53:07;2.67;;;2.00;;
9960;SDS011;5021;51.506;11.320;2023-02-04T03:55:33;2.93;;;2.60;;
9960;SDS011;5021;51.506;11.320;2023-02-04T03:58:00;3.37;;;2.40;;
9960;SDS011;5021;51.506;11.320;2023-02-04T04:00:26;2.70;;;2.50;;
9960;SDS011;5021;51.506;11.320;2023-02-04T04:02:52;2.50;;;2.30;;
9960;SDS011;5021;51.506;11.320;2023-02-04T04:05:18;2.87;;;2.20;;
9960;SDS011;5021;51.506;11.320;2023-02-04T04:07:44;4.83;;;2.43;;
9960;SDS011;5021;51.506;11.320;2023-02-04T04:10:10;2.50;;;2.30;;
9960;SDS011;5021;51.506;11.320;2023-02-04T04:12:36;3.37;;;2.70;;
9960;SDS011;5021;51.506;11.320;2023-02-04T04:15:02;3.13;;;2.40;;
9960;SDS011;5021;51.506;11.320;2023-02-04T04:17:28;3.30;;;2.30;;
9960;SDS011;5021;51.506;11.320;2023-02-04T04:19:54;3.13;;;2.70;;
9960;SDS011;5021;51.506;11.320;2023-02-04T04:22:20;4.33;;;2.27;;
9960;SDS011;5021;51.506;11.320;2023-02-04T04:24:46;5.03;;;3.07;;
9960;SDS011;5021;51.506;11.320;2023-02-04T04:27:11;2.50;;;2.30;;
9960;SDS011;5021;51.506;11.320;2023-02-04T04:29:37;3.17;;;2.60;;
9960;SDS011;5021;51.506;11.320;2023-02-04T04:32:03;5.03;;;3.43;;
9960;SDS011;5021;51.506;11.320;2023-02-04T04:34:30;2.37;;;2.17;;
9960;SDS011;5021;51.506;11.320;2023-02-04T04:36:56;4.80;;;3.80;;
9960;SDS011;5021;51.506;11.320;2023-02-04T04:39:22;2.87;;;2.40;;
9960;SDS011;5021;51.506;11.320;2023-02-04T04:41:48;4.00;;;2.90;;
9960;SDS011;5021;51.506;11.320;2023-02-04T04:44:14;3.20;;;2.90;;
9960;SDS011;5021;51.506;11.320;2023-02-04T04:46:40;2.60;;;2.40;;
9960;SDS011;5021;51.506;11.320;2023-02-04T04:49:06;3.97;;;2.20;;
9960;SDS011;5021;51.506;11.320;2023-02-04T04:51:32;3.67;;;2.40;;
9960;SDS011;5021;51.506;11.320;2023-02-04T04:53:58;3.27;;;2.77;;
9960;SDS011;5021;51.506;11.320;2023-02-04T04:56:24;2.57;;;2.37;;
9960;SDS011;5021;51.506;11.320;2023-02-04T04:58:50;3.93;;;2.80;;
9960;SDS011;5021;51.506;11.320;2023-02-04T05:01:16;3.33;;;3.03;;
9960;SDS011;5021;51.506;11.320;2023-02-04T05:03:41;3.10;;;2.83;;
9960;SDS011;5021;51.506;11.320;2023-02-04T05:06:07;5.13;;;3.60;;
9960;SDS011;5021;51.506;11.320;2023-02-04T05:08:34;8.23;;;4.53;;
9960;SDS011;5021;51.506;11.320;2023-02-04T05:11:01;16.60;;;9.13;;
9960;SDS011;5021;51.506;11.320;2023-02-04T05:13:27;21.27;;;9.70;;
9960;SDS011;5021;51.506;11.320;2023-02-04T05:15:53;15.80;;;8.10;;
9960;SDS011;5021;51.506;11.320;2023-02-04T05:18:19;11.03;;;5.90;;
9960;SDS011;5021;51.506;11.320;2023-02-04T05:20:45;5.93;;;4.53;;
9960;SDS011;5021;51.506;11.320;2023-02-04T05:23:10;5.10;;;4.10;;
9960;SDS011;5021;51.506;11.320;2023-02-04T05:25:36;4.73;;;3.13;;
9960;SDS011;5021;51.506;11.320;2023-02-04T05:28:03;3.67;;;3.13;;
9960;SDS011;5021;51.506;11.320;2023-02-04T05:30:29;5.90;;;4.00;;
9960;SDS011;5021;51.506;11.320;2023-02-04T05:32:55;10.83;;;7.33;;
9960;SDS011;5021;51.506;11.320;2023-02-04T05:35:21;6.40;;;4.67;;
9960;SDS011;5021;51.506;11.320;2023-02-04T05:37:47;5.73;;;4.10;;
9960;SDS011;5021;51.506;11.320;2023-02-04T05:40:13;3.90;;;3.07;;
9960;SDS011;5021;51.506;11.320;2023-02-04T05:42:39;4.30;;;3.37;;
9960;SDS011;5021;51.506;11.320;2023-02-04T05:45:05;4.73;;;3.23;;
9960;SDS011;5021;51.506;11.320;2023-02-04T05:47:31;7.70;;;4.67;;
9960;SDS011;5021;51.506;11.320;2023-02-04T05:49:57;9.53;;;6.10;;
9960;SDS011;5021;51.506;11.320;2023-02-04T05:52:23;14.70;;;9.03;;
9960;SDS011;5021;51.506;11.320;2023-02-04T05:54:49;10.57;;;7.33;;
9960;SDS011;5021;51.506;11.320;2023-02-04T05:57:15;6.13;;;5.10;;
9960;SDS011;5021;51.506;11.320;2023-02-04T05:59:41;4.60;;;3.83;;
9960;SDS011;5021;51.506;11.320;2023-02-04T06:02:07;3.97;;;3.57;;
9960;SDS011;5021;51.506;11.320;2023-02-04T06:04:33;3.70;;;3.23;;
9960;SDS011;5021;51.506;11.320;2023-02-04T06:06:59;5.70;;;5.13;;
9960;SDS011;5021;51.506;11.320;2023-02-04T06:09:25;7.77;;;4.73;;
9960;SDS011;5021;51.506;11.320;2023-02-04T06:11:51;5.77;;;3.80;;
9960;SDS011;5021;51.506;11.320;2023-02-04T06:14:17;7.23;;;4.10;;
9960;SDS011;5021;51.506;11.320;2023-02-04T06:16:43;6.17;;;4.77;;
9960;SDS011;5021;51.506;11.320;2023-02-04T06:19:09;5.93;;;4.03;;
9960;SDS011;5021;51.506;11.320;2023-02-04T06:21:35;3.50;;;3.00;;
9960;SDS011;5021;51.506;11.320;2023-02-04T06:24:01;5.57;;;3.50;;
9960;SDS011;5021;51.506;11.320;2023-02-04T06:26:27;3.57;;;3.20;;
9960;SDS011;5021;51.506;11.320;2023-02-04T06:28:53;5.63;;;3.60;;
9960;SDS011;5021;51.506;11.320;2023-02-04T06:31:18;3.60;;;3.20;;
9960;SDS011;5021;51.506;11.320;2023-02-04T06:33:44;3.63;;;3.30;;
9960;SDS011;5021;51.506;11.320;2023-02-04T06:36:10;7.67;;;5.80;;
9960;SDS011;5021;51.506;11.320;2023-02-04T06:38:36;7.40;;;5.17;;
9960;SDS011;5021;51.506;11.320;2023-02-04T06:41:02;6.97;;;5.20;;
9960;SDS011;5021;51.506;11.320;2023-02-04T06:43:28;5.53;;;3.90;;
9960;SDS011;5021;51.506;11.320;2023-02-04T06:45:54;7.57;;;5.67;;
9960;SDS011;5021;51.506;11.320;2023-02-04T06:48:20;5.73;;;3.10;;
9960;SDS011;5021;51.506;11.320;2023-02-04T06:50:46;4.70;;;3.30;;
9960;SDS011;5021;51.506;11.320;2023-02-04T06:53:12;11.00;;;6.27;;
9960;SDS011;5021;51.506;11.320;2023-02-04T06:55:38;6.67;;;4.40;;
9960;SDS011;5021;51.506;11.320;2023-02-04T06:58:04;7.97;;;4.90;;
9960;SDS011;5021;51.506;11.320;2023-02-04T07:00:29;7.30;;;4.80;;
9960;SDS011;5021;51.506;11.320;2023-02-04T07:02:56;7.40;;;4.87;;
9960;SDS011;5021;51.506;11.320;2023-02-04T07:05:22;5.47;;;4.23;;
9960;SDS011;5021;51.506;11.320;2023-02-04T07:07:48;17.17;;;10.40;;
9960;SDS011;5021;51.506;11.320;2023-02-04T07:10:15;11.40;;;7.33;;
9960;SDS011;5021;51.506;11.320;2023-02-04T07:12:41;7.43;;;4.30;;
9960;SDS011;5021;51.506;11.320;2023-02-04T07:15:07;7.87;;;5.80;;
9960;SDS011;5021;51.506;11.320;2023-02-04T07:17:33;7.90;;;5.33;;
9960;SDS011;5021;51.506;11.320;2023-02-04T07:19:59;9.73;;;6.57;;
9960;SDS011;5021;51.506;11.320;2023-02-04T07:22:25;7.10;;;5.73;;
9960;SDS011;5021;51.506;11.320;2023-02-04T07:24:51;4.97;;;3.37;;
9960;SDS011;5021;51.506;11.320;2023-02-04T07:27:17;8.60;;;4.20;;
9960;SDS011;5021;51.506;11.320;2023-02-04T07:29:43;6.67;;;3.83;;
9960;SDS011;5021;51.506;11.320;2023-02-04T07:32:09;6.43;;;3.73;;
9960;SDS011;5021;51.506;11.320;2023-02-04T07:34:35;5.27;;;3.97;;
9960;SDS011;5021;51.506;11.320;2023-02-04T07:37:00;5.30;;;3.77;;
9960;SDS011;5021;51.506;11.320;2023-02-04T07:39:26;8.07;;;5.10;;
9960;SDS011;5021;51.506;11.320;2023-02-04T07:41:52;8.87;;;5.60;;
9960;SDS011;5021;51.506;11.320;2023-02-04T07:44:18;14.07;;;7.73;;
9960;SDS011;5021;51.506;11.320;2023-02-04T07:46:44;13.03;;;9.07;;
9960;SDS011;5021;51.506;11.320;2023-02-04T07:49:10;9.50;;;6.27;;
9960;SDS011;5021;51.506;11.320;2023-02-04T07:51:36;6.37;;;4.80;;
9960;SDS011;5021;51.506;11.320;2023-02-04T07:54:02;7.27;;;4.50;;
9960;SDS011;5021;51.506;11.320;2023-02-04T07:56:28;9.77;;;5.40;;
9960;SDS011;5021;51.506;11.320;2023-02-04T07:58:54;8.43;;;4.87;;
9960;SDS011;5021;51.506;11.320;2023-02-04T08:01:20;8.10;;;5.77;;
9960;SDS011;5021;51.506;11.320;2023-02-04T08:03:46;8.53;;;5.30;;
9960;SDS011;5021;51.506;11.320;2023-02-04T08:06:12;5.43;;;4.07;;
9960;SDS011;5021;51.506;11.320;2023-02-04T08:08:38;7.23;;;4.43;;
9960;SDS011;5021;51.506;11.320;2023-02-04T08:11:04;5.53;;;4.07;;
9960;SDS011;5021;51.506;11.320;2023-02-04T08:13:30;5.43;;;3.20;;
9960;SDS011;5021;51.506;11.320;2023-02-04T08:15:56;5.33;;;3.40;;
9960;SDS011;5021;51.506;11.320;2023-02-04T08:18:22;4.87;;;3.10;;
9960;SDS011;5021;51.506;11.320;2023-02-04T08:20:49;5.70;;;2.97;;
9960;SDS011;5021;51.506;11.320;2023-02-04T08:23:14;3.30;;;2.97;;
9960;SDS011;5021;51.506;11.320;2023-02-04T08:25:40;7.60;;;4.70;;
9960;SDS011;5021;51.506;11.320;2023-02-04T08:28:06;6.83;;;4.30;;
9960;SDS011;5021;51.506;11.320;2023-02-04T08:30:32;6.40;;;4.23;;
9960;SDS011;5021;51.506;11.320;2023-02-04T08:32:58;6.33;;;5.43;;
9960;SDS011;5021;51.506;11.320;2023-02-04T08:35:24;5.60;;;3.87;;
9960;SDS011;5021;51.506;11.320;2023-02-04T08:37:50;5.37;;;4.00;;
9960;SDS011;5021;51.506;11.320;2023-02-04T08:40:16;6.30;;;3.20;;
9960;SDS011;5021;51.506;11.320;2023-02-04T08:42:42;6.13;;;3.90;;
9960;SDS011;5021;51.506;11.320;2023-02-04T08:45:08;8.17;;;5.20;;
9960;SDS011;5021;51.506;11.320;2023-02-04T08:47:34;4.53;;;3.70;;
9960;SDS011;5021;51.506;11.320;2023-02-04T08:50:00;5.40;;;4.10;;
9960;SDS011;5021;51.506;11.320;2023-02-04T08:52:26;8.47;;;5.77;;
9960;SDS011;5021;51.506;11.320;2023-02-04T08:54:52;4.70;;;3.83;;
9960;SDS011;5021;51.506;11.320;2023-02-04T08:57:18;5.07;;;3.73;;
9960;SDS011;5021;51.506;11.320;2023-02-04T08:59:44;3.77;;;2.80;;
9960;SDS011;5021;51.506;11.320;2023-02-04T09:02:10;3.57;;;2.30;;
9960;SDS011;5021;51.506;11.320;2023-02-04T09:04:36;3.80;;;2.23;;
9960;SDS011;5021;51.506;11.320;2023-02-04T09:07:02;4.43;;;2.63;;
9960;SDS011;5021;51.506;11.320;2023-02-04T09:09:28;3.07;;;2.50;;
9960;SDS011;5021;51.506;11.320;2023-02-04T09:11:53;5.00;;;2.00;;
9960;SDS011;5021;51.506;11.320;2023-02-04T09:14:19;2.97;;;2.20;;
9960;SDS011;5021;51.506;11.320;2023-02-04T09:16:45;3.03;;;2.47;;
9960;SDS011;5021;51.506;11.320;2023-02-04T09:19:13;3.37;;;2.33;;
9960;SDS011;5021;51.506;11.320;2023-02-04T09:21:40;5.40;;;2.93;;
9960;SDS011;5021;51.506;11.320;2023-02-04T09:24:06;4.47;;;2.90;;
9960;SDS011;5021;51.506;11.320;2023-02-04T09:26:32;2.97;;;2.50;;
9960;SDS011;5021;51.506;11.320;2023-02-04T09:28:58;3.33;;;2.37;;
9960;SDS011;5021;51.506;11.320;2023-02-04T09:31:24;4.27;;;2.40;;
9960;SDS011;5021;51.506;11.320;2023-02-04T09:33:50;5.23;;;2.37;;
9960;SDS011;5021;51.506;11.320;2023-02-04T09:36:16;4.23;;;2.53;;
9960;SDS011;5021;51.506;11.320;2023-02-04T09:38:42;4.47;;;2.70;;
9960;SDS011;5021;51.506;11.320;2023-02-04T09:41:09;4.47;;;2.50;;
9960;SDS011;5021;51.506;11.320;2023-02-04T09:43:37;2.93;;;2.20;;
9960;SDS011;5021;51.506;11.320;2023-02-04T09:46:04;3.53;;;2.70;;
9960;SDS011;5021;51.506;11.320;2023-02-04T09:48:30;4.43;;;2.33;;
9960;SDS011;5021;51.506;11.320;2023-02-04T09:51:01;2.87;;;2.30;;
9960;SDS011;5021;51.506;11.320;2023-02-04T09:53:28;3.50;;;2.50;;
9960;SDS011;5021;51.506;11.320;2023-02-04T09:55:54;3.47;;;2.83;;
9960;SDS011;5021;51.506;11.320;2023-02-04T09:58:21;3.20;;;2.70;;
9960;SDS011;5021;51.506;11.320;2023-02-04T10:00:51;3.43;;;2.57;;
9960;SDS011;5021;51.506;11.320;2023-02-04T10:03:18;5.73;;;2.80;;
9960;SDS011;5021;51.506;11.320;2023-02-04T10:05:46;5.63;;;3.13;;
9960;SDS011;5021;51.506;11.320;2023-02-04T10:08:13;5.63;;;2.90;;
9960;SDS011;5021;51.506;11.320;2023-02-04T10:10:40;3.17;;;2.10;;
9960;SDS011;5021;51.506;11.320;2023-02-04T10:13:07;3.23;;;2.03;;
9960;SDS011;5021;51.506;11.320;2023-02-04T10:15:36;2.87;;;1.93;;
9960;SDS011;5021;51.506;11.320;2023-02-04T10:18:03;3.23;;;1.87;;
9960;SDS011;5021;51.506;11.320;2023-02-04T10:20:31;2.73;;;1.73;;
9960;SDS011;5021;51.506;11.320;2023-02-04T10:22:57;3.07;;;1.37;;
9960;SDS011;5021;51.506;11.320;2023-02-04T10:25:24;1.90;;;1.73;;
9960;SDS011;5021;51.506;11.320;2023-02-04T10:27:57;3.17;;;1.97;;
9960;SDS011;5021;51.506;11.320;2023-02-04T10:30:24;3.00;;;1.80;;
9960;SDS011;5021;51.506;11.320;2023-02-04T10:32:51;3.37;;;2.47;;
9960;SDS011;5021;51.506;11.320;2023-02-04T10:35:18;2.63;;;1.70;;
9960;SDS011;5021;51.506;11.320;2023-02-04T10:37:44;3.27;;;1.70;;
9960;SDS011;5021;51.506;11.320;2023-02-04T10:40:30;3.70;;;2.10;;
9960;SDS011;5021;51.506;11.320;2023-02-04T10:42:56;3.10;;;1.90;;
9960;SDS011;5021;51.506;11.320;2023-02-04T10:45:26;5.13;;;1.80;;
9960;SDS011;5021;51.506;11.320;2023-02-04T10:47:53;2.80;;;1.43;;
9960;SDS011;5021;51.506;11.320;2023-02-04T10:50:20;2.10;;;1.27;;
9960;SDS011;5021;51.506;11.320;2023-02-04T10:52:48;5.00;;;1.33;;
9960;SDS011;5021;51.506;11.320;2023-02-04T10:55:18;2.47;;;1.57;;
9960;SDS011;5021;51.506;11.320;2023-02-04T10:57:45;1.87;;;1.67;;
9960;SDS011;5021;51.506;11.320;2023-02-04T11:00:19;2.37;;;1.80;;
9960;SDS011;5021;51.506;11.320;2023-02-04T11:02:52;2.23;;;1.67;;
9960;SDS011;5021;51.506;11.320;2023-02-04T11:05:20;3.13;;;1.47;;
9960;SDS011;5021;51.506;11.320;2023-02-04T11:07:47;4.50;;;2.17;;
9960;SDS011;5021;51.506;11.320;2023-02-04T11:10:24;2.87;;;2.03;;
9960;SDS011;5021;51.506;11.320;2023-02-04T11:18:04;2.53;;;1.63;;
9960;SDS011;5021;51.506;11.320;2023-02-04T11:20:31;2.80;;;1.47;;
9960;SDS011;5021;51.506;11.320;2023-02-04T11:23:14;3.23;;;1.73;;
9960;SDS011;5021;51.506;11.320;2023-02-04T11:25:40;7.27;;;2.20;;
9960;SDS011;5021;51.506;11.320;2023-02-04T11:28:13;1.77;;;1.40;;
9960;SDS011;5021;51.506;11.320;2023-02-04T11:30:39;2.37;;;1.70;;
9960;SDS011;5021;51.506;11.320;2023-02-04T11:33:05;1.73;;;1.50;;
9960;SDS011;5021;51.506;11.320;2023-02-04T11:35:31;1.43;;;1.33;;
9960;SDS011;5021;51.506;11.320;2023-02-04T11:37:57;1.73;;;1.30;;
9960;SDS011;5021;51.506;11.320;2023-02-04T11:40:33;2.43;;;1.53;;
9960;SDS011;5021;51.506;11.320;2023-02-04T11:43:11;2.37;;;1.37;;
9960;SDS011;5021;51.506;11.320;2023-02-04T11:45:38;1.53;;;1.23;;
9960;SDS011;5021;51.506;11.320;2023-02-04T11:48:16;2.07;;;1.40;;
9960;SDS011;5021;51.506;11.320;2023-02-04T11:50:42;2.10;;;1.40;;
9960;SDS011;5021;51.506;11.320;2023-02-04T11:53:09;2.20;;;1.60;;
9960;SDS011;5021;51.506;11.320;2023-02-04T11:55:41;1.37;;;1.27;;
9960;SDS011;5021;51.506;11.320;2023-02-04T11:58:11;6.57;;;2.53;;
9960;SDS011;5021;51.506;11.320;2023-02-04T12:00:38;1.70;;;1.50;;
9960;SDS011;5021;51.506;11.320;2023-02-04T12:03:16;2.07;;;1.30;;
9960;SDS011;5021;51.506;11.320;2023-02-04T12:05:45;2.27;;;1.37;;
9960;SDS011;5021;51.506;11.320;2023-02-04T12:08:45;2.13;;;1.53;;
9960;SDS011;5021;51.506;11.320;2023-02-04T12:11:05;1.33;;;1.23;;
9960;SDS011;5021;51.506;11.320;2023-02-04T12:13:32;2.07;;;1.33;;
9960;SDS011;5021;51.506;11.320;2023-02-04T12:18:24;3.30;;;1.83;;
9960;SDS011;5021;51.506;11.320;2023-02-04T12:20:51;3.27;;;2.97;;
9960;SDS011;5021;51.506;11.320;2023-02-04T12:23:17;2.40;;;2.13;;
9960;SDS011;5021;51.506;11.320;2023-02-04T12:25:43;1.60;;;1.47;;
9960;SDS011;5021;51.506;11.320;2023-02-04T12:28:09;2.77;;;2.20;;
9960;SDS011;5021;51.506;11.320;2023-02-04T12:30:35;2.67;;;1.87;;
9960;SDS011;5021;51.506;11.320;2023-02-04T12:33:01;2.13;;;1.57;;
9960;SDS011;5021;51.506;11.320;2023-02-04T12:35:27;2.40;;;1.77;;
9960;SDS011;5021;51.506;11.320;2023-02-04T12:37:53;3.63;;;1.50;;
9960;SDS011;5021;51.506;11.320;2023-02-04T12:40:19;1.93;;;1.47;;
9960;SDS011;5021;51.506;11.320;2023-02-04T12:42:46;2.67;;;1.20;;
9960;SDS011;5021;51.506;11.320;2023-02-04T12:45:13;1.43;;;1.17;;
9960;SDS011;5021;51.506;11.320;2023-02-04T12:47:39;1.10;;;1.00;;
9960;SDS011;5021;51.506;11.320;2023-02-04T12:50:05;1.43;;;1.23;;
9960;SDS011;5021;51.506;11.320;2023-02-04T12:52:31;1.73;;;1.10;;
9960;SDS011;5021;51.506;11.320;2023-02-04T12:54:57;1.33;;;1.23;;
9960;SDS011;5021;51.506;11.320;2023-02-04T12:57:28;1.30;;;1.20;;
9960;SDS011;5021;51.506;11.320;2023-02-04T12:59:54;1.33;;;1.10;;
9960;SDS011;5021;51.506;11.320;2023-02-04T13:02:21;1.03;;;1.03;;
9960;SDS011;5021;51.506;11.320;2023-02-04T13:04:47;1.53;;;1.40;;
9960;SDS011;5021;51.506;11.320;2023-02-04T13:07:13;2.07;;;1.37;;
9960;SDS011;5021;51.506;11.320;2023-02-04T13:09:40;2.17;;;1.57;;
9960;SDS011;5021;51.506;11.320;2023-02-04T13:12:05;1.77;;;1.30;;
9960;SDS011;5021;51.506;11.320;2023-02-04T13:14:31;3.50;;;1.60;;
9960;SDS011;5021;51.506;11.320;2023-02-04T13:16:58;4.10;;;1.60;;
9960;SDS011;5021;51.506;11.320;2023-02-04T13:19:24;3.17;;;1.60;;
9960;SDS011;5021;51.506;11.320;2023-02-04T13:21:50;2.93;;;1.50;;
9960;SDS011;5021;51.506;11.320;2023-02-04T13:24:16;2.60;;;1.40;;
9960;SDS011;5021;51.506;11.320;2023-02-04T13:26:42;2.50;;;1.50;;
9960;SDS011;5021;51.506;11.320;2023-02-04T13:29:07;1.60;;;1.50;;
9960;SDS011;5021;51.506;11.320;2023-02-04T13:31:33;1.90;;;1.50;;
9960;SDS011;5021;51.506;11.320;2023-02-04T13:33:59;3.27;;;1.60;;
9960;SDS011;5021;51.506;11.320;2023-02-04T13:36:25;2.27;;;1.50;;
9960;SDS011;5021;51.506;11.320;2023-02-04T13:38:52;2.40;;;1.60;;
9960;SDS011;5021;51.506;11.320;2023-02-04T13:41:18;4.03;;;2.57;;
9960;SDS011;5021;51.506;11.320;2023-02-04T13:43:44;2.80;;;2.13;;
9960;SDS011;5021;51.506;11.320;2023-02-04T13:46:10;3.10;;;2.33;;
9960;SDS011;5021;51.506;11.320;2023-02-04T13:48:36;3.73;;;2.13;;
9960;SDS011;5021;51.506;11.320;2023-02-04T13:51:01;1.50;;;1.40;;
9960;SDS011;5021;51.506;11.320;2023-02-04T13:53:27;1.37;;;1.23;;
9960;SDS011;5021;51.506;11.320;2023-02-04T13:55:55;3.47;;;1.40;;
9960;SDS011;5021;51.506;11.320;2023-02-04T13:58:22;2.27;;;1.60;;
9960;SDS011;5021;51.506;11.320;2023-02-04T14:00:48;2.97;;;1.80;;
9960;SDS011;5021;51.506;11.320;2023-02-04T14:03:14;2.33;;;1.80;;
9960;SDS011;5021;51.506;11.320;2023-02-04T14:05:39;2.00;;;1.80;;
9960;SDS011;5021;51.506;11.320;2023-02-04T14:08:05;2.80;;;2.03;;
9960;SDS011;5021;51.506;11.320;2023-02-04T14:10:31;1.80;;;1.53;;
9960;SDS011;5021;51.506;11.320;2023-02-04T14:12:57;2.90;;;2.20;;
9960;SDS011;5021;51.506;11.320;2023-02-04T14:15:23;2.10;;;1.87;;
9960;SDS011;5021;51.506;11.320;2023-02-04T14:17:49;3.20;;;1.50;;
9960;SDS011;5021;51.506;11.320;2023-02-04T14:20:15;1.50;;;1.13;;
9960;SDS011;5021;51.506;11.320;2023-02-04T14:22:41;2.10;;;1.30;;
9960;SDS011;5021;51.506;11.320;2023-02-04T14:25:07;2.60;;;1.47;;
9960;SDS011;5021;51.506;11.320;2023-02-04T14:27:34;3.93;;;2.03;;
9960;SDS011;5021;51.506;11.320;2023-02-04T14:30:02;3.03;;;1.87;;
9960;SDS011;5021;51.506;11.320;2023-02-04T14:32:29;2.77;;;1.27;;
9960;SDS011;5021;51.506;11.320;2023-02-04T14:34:55;2.37;;;1.57;;
9960;SDS011;5021;51.506;11.320;2023-02-04T14:37:21;2.20;;;1.50;;
9960;SDS011;5021;51.506;11.320;2023-02-04T14:39:49;1.43;;;1.33;;
9960;SDS011;5021;51.506;11.320;2023-02-04T14:42:15;3.27;;;1.63;;
9960;SDS011;5021;51.506;11.320;2023-02-04T14:44:41;2.40;;;1.43;;
9960;SDS011;5021;51.506;11.320;2023-02-04T14:47:07;3.33;;;2.13;;
9960;SDS011;5021;51.506;11.320;2023-02-04T14:49:33;3.57;;;2.50;;
9960;SDS011;5021;51.506;11.320;2023-02-04T14:52:01;1.60;;;1.50;;
9960;SDS011;5021;51.506;11.320;2023-02-04T14:54:28;2.80;;;1.50;;
9960;SDS011;5021;51.506;11.320;2023-02-04T14:56:54;1.60;;;1.40;;
9960;SDS011;5021;51.506;11.320;2023-02-04T14:59:20;2.10;;;1.30;;
9960;SDS011;5021;51.506;11.320;2023-02-04T15:01:46;2.70;;;2.20;;
9960;SDS011;5021;51.506;11.320;2023-02-04T15:04:12;4.83;;;3.27;;